sensor_id;sensor_type;location;lat;lon;timestamp;pressure;altitude;pressure_sealevel;temperature;humidity
6530;BME280;3298;42.688;23.366;2023-09-19T00:00:30;51884.91;;;-145.06;64.68
6530;BME280;3298;42.688;23.366;2023-09-19T00:02:59;51880.81;;;-145.06;65.31
6530;BME280;3298;42.688;23.366;2023-09-19T00:05:27;51862.41;;;-145.06;65.13
6530;BME280;3298;42.688;23.366;2023-09-19T00:07:55;51876.75;;;-145.06;64.96
6530;BME280;3298;42.688;23.366;2023-09-19T00:10:24;51882.88;;;-145.06;65.22
6530;BME280;3298;42.688;23.366;2023-09-19T00:12:52;51884.91;;;-145.06;64.94
6530;BME280;3298;42.688;23.366;2023-09-19T00:15:20;51893.09;;;-145.06;64.98
6530;BME280;3298;42.688;23.366;2023-09-19T00:17:47;51897.19;;;-145.06;65.33
6530;BME280;3298;42.688;23.366;2023-09-19T00:20:14;51872.66;;;-145.06;64.96
6530;BME280;3298;42.688;23.366;2023-09-19T00:22:44;51870.59;;;-145.06;65.08
6530;BME280;3298;42.688;23.366;2023-09-19T00:25:11;51872.66;;;-145.06;66.01
6530;BME280;3298;42.688;23.366;2023-09-19T00:27:41;51897.19;;;-145.06;65.97
6530;BME280;3298;42.688;23.366;2023-09-19T00:30:09;51886.97;;;-145.06;66.17
6530;BME280;3298;42.688;23.366;2023-09-19T00:32:40;51856.28;;;-145.06;66.21
6530;BME280;3298;42.688;23.366;2023-09-19T00:35:07;51856.28;;;-145.06;66.21
6530;BME280;3298;42.688;23.366;2023-09-19T00:37:36;51876.75;;;-145.06;66.73
6530;BME280;3298;42.688;23.366;2023-09-19T00:40:05;51893.09;;;-145.06;67.50
6530;BME280;3298;42.688;23.366;2023-09-19T00:42:32;51876.75;;;-145.06;67.31
6530;BME280;3298;42.688;23.366;2023-09-19T00:45:00;51886.97;;;-145.06;67.76
6530;BME280;3298;42.688;23.366;2023-09-19T00:47:29;51913.56;;;-145.06;67.72
6530;BME280;3298;42.688;23.366;2023-09-19T00:49:56;51882.88;;;-145.06;68.00
6530;BME280;3298;42.688;23.366;2023-09-19T00:52:23;51884.91;;;-145.06;67.32
6530;BME280;3298;42.688;23.366;2023-09-19T00:54:51;51891.06;;;-145.06;66.60
6530;BME280;3298;42.688;23.366;2023-09-19T00:57:19;51897.19;;;-145.06;65.63
6530;BME280;3298;42.688;23.366;2023-09-19T00:59:48;51901.28;;;-145.06;65.30
6530;BME280;3298;42.688;23.366;2023-09-19T01:02:16;51876.75;;;-145.06;66.31
6530;BME280;3298;42.688;23.366;2023-09-19T01:04:44;51899.25;;;-145.06;66.80
6530;BME280;3298;42.688;23.366;2023-09-19T01:07:12;51876.75;;;-145.06;66.10
6530;BME280;3298;42.688;23.366;2023-09-19T01:09:40;51884.91;;;-145.06;65.76
6530;BME280;3298;42.688;23.366;2023-09-19T01:12:08;51897.19;;;-145.06;66.39
6530;BME280;3298;42.688;23.366;2023-09-19T01:14:46;51897.19;;;-145.06;65.83
6530;BME280;3298;42.688;23.366;2023-09-19T01:17:25;51880.81;;;-145.06;66.70
6530;BME280;3298;42.688;23.366;2023-09-19T01:20:15;51884.91;;;-145.06;66.44
6530;BME280;3298;42.688;23.366;2023-09-19T01:22:53;51884.91;;;-145.06;66.93
6530;BME280;3298;42.688;23.366;2023-09-19T01:28:30;51889.00;;;-145.06;67.77
6530;BME280;3298;42.688;23.366;2023-09-19T01:31:04;51899.25;;;-145.06;66.39
6530;BME280;3298;42.688;23.366;2023-09-19T01:33:53;51868.56;;;-145.06;66.56
6530;BME280;3298;42.688;23.366;2023-09-19T01:36:22;51895.16;;;-145.06;66.59
6530;BME280;3298;42.688;23.366;2023-09-19T01:38:49;51893.09;;;-145.06;66.59
6530;BME280;3298;42.688;23.366;2023-09-19T01:41:23;51913.56;;;-145.06;68.22
6530;BME280;3298;42.688;23.366;2023-09-19T01:43:52;51884.91;;;-145.06;68.64
6530;BME280;3298;42.688;23.366;2023-09-19T01:46:24;51884.91;;;-145.06;67.74
6530;BME280;3298;42.688;23.366;2023-09-19T01:48:58;51876.75;;;-145.06;67.19
6530;BME280;3298;42.688;23.366;2023-09-19T01:51:33;51876.75;;;-145.06;67.08
6530;BME280;3298;42.688;23.366;2023-09-19T01:54:03;51882.88;;;-145.06;67.53
6530;BME280;3298;42.688;23.366;2023-09-19T01:56:35;51895.16;;;-145.06;66.56
6530;BME280;3298;42.688;23.366;2023-09-19T01:59:06;51872.66;;;-145.06;67.08
6530;BME280;3298;42.688;23.366;2023-09-19T02:01:37;51891.06;;;-145.06;68.70
6530;BME280;3298;42.688;23.366;2023-09-19T02:04:04;51858.31;;;-145.06;69.09
6530;BME280;3298;42.688;23.366;2023-09-19T02:06:32;51831.72;;;-145.06;69.10
6530;BME280;3298;42.688;23.366;2023-09-19T02:08:59;51901.28;;;-145.06;69.46
6530;BME280;3298;42.688;23.366;2023-09-19T02:11:26;51880.81;;;-145.06;69.45
6530;BME280;3298;42.688;23.366;2023-09-19T02:13:52;51872.66;;;-145.06;69.77
6530;BME280;3298;42.688;23.366;2023-09-19T02:16:20;51880.81;;;-145.06;70.80
6530;BME280;3298;42.688;23.366;2023-09-19T02:18:48;51872.66;;;-145.06;71.42
6530;BME280;3298;42.688;23.366;2023-09-19T02:21:16;51862.41;;;-145.06;72.71
6530;BME280;3298;42.688;23.366;2023-09-19T02:23:43;51844.00;;;-145.06;72.33
6530;BME280;3298;42.688;23.366;2023-09-19T02:26:10;51882.88;;;-145.06;72.03
6530;BME280;3298;42.688;23.366;2023-09-19T02:28:37;51899.25;;;-145.06;71.79
6530;BME280;3298;42.688;23.366;2023-09-19T02:31:04;51893.09;;;-145.06;71.66
6530;BME280;3298;42.688;23.366;2023-09-19T02:33:32;51905.38;;;-145.06;72.41
6530;BME280;3298;42.688;23.366;2023-09-19T02:36:00;51880.81;;;-145.06;73.08
6530;BME280;3298;42.688;23.366;2023-09-19T02:38:29;51856.28;;;-145.06;72.57
6530;BME280;3298;42.688;23.366;2023-09-19T02:40:56;51856.28;;;-145.06;72.51
6530;BME280;3298;42.688;23.366;2023-09-19T02:43:23;51872.66;;;-145.06;71.89
6530;BME280;3298;42.688;23.366;2023-09-19T02:45:50;51893.09;;;-145.06;72.75
6530;BME280;3298;42.688;23.366;2023-09-19T02:48:18;51872.66;;;-145.06;72.88
6530;BME280;3298;42.688;23.366;2023-09-19T02:50:48;51868.56;;;-145.06;72.81
6530;BME280;3298;42.688;23.366;2023-09-19T02:53:17;51884.91;;;-145.06;72.30
6530;BME280;3298;42.688;23.366;2023-09-19T02:55:44;51886.97;;;-145.06;73.04
6530;BME280;3298;42.688;23.366;2023-09-19T02:58:11;51876.75;;;-145.06;73.62
6530;BME280;3298;42.688;23.366;2023-09-19T03:00:39;51872.66;;;-145.06;73.40
6530;BME280;3298;42.688;23.366;2023-09-19T03:03:08;51884.91;;;-145.06;73.79
6530;BME280;3298;42.688;23.366;2023-09-19T03:05:35;51893.09;;;-145.06;74.24
6530;BME280;3298;42.688;23.366;2023-09-19T03:08:03;51905.38;;;-145.06;75.01
6530;BME280;3298;42.688;23.366;2023-09-19T03:10:32;51872.66;;;-145.06;75.68
6530;BME280;3298;42.688;23.366;2023-09-19T03:13:02;51876.75;;;-145.06;76.60
6530;BME280;3298;42.688;23.366;2023-09-19T03:15:29;51864.47;;;-145.06;75.43
6530;BME280;3298;42.688;23.366;2023-09-19T03:17:55;51901.28;;;-145.06;73.66
6530;BME280;3298;42.688;23.366;2023-09-19T03:20:23;51891.06;;;-145.06;72.66
6530;BME280;3298;42.688;23.366;2023-09-19T03:22:50;51866.50;;;-145.06;74.34
6530;BME280;3298;42.688;23.366;2023-09-19T03:25:17;51876.75;;;-145.06;74.68
6530;BME280;3298;42.688;23.366;2023-09-19T03:27:46;51864.47;;;-145.06;73.79
6530;BME280;3298;42.688;23.366;2023-09-19T03:30:13;51876.75;;;-145.06;72.57
6530;BME280;3298;42.688;23.366;2023-09-19T03:32:44;51886.97;;;-145.06;72.05
6530;BME280;3298;42.688;23.366;2023-09-19T03:35:11;51886.97;;;-145.06;71.78
6530;BME280;3298;42.688;23.366;2023-09-19T03:37:39;51876.75;;;-145.06;73.20
6530;BME280;3298;42.688;23.366;2023-09-19T03:40:07;51880.81;;;-145.06;71.87
6530;BME280;3298;42.688;23.366;2023-09-19T03:42:38;51868.56;;;-145.06;72.93
6530;BME280;3298;42.688;23.366;2023-09-19T03:45:07;51880.81;;;-145.06;72.94
6530;BME280;3298;42.688;23.366;2023-09-19T03:47:37;51880.81;;;-145.06;72.05
6530;BME280;3298;42.688;23.366;2023-09-19T03:50:05;51872.66;;;-145.06;71.37
6530;BME280;3298;42.688;23.366;2023-09-19T03:52:32;51862.41;;;-145.06;70.69
6530;BME280;3298;42.688;23.366;2023-09-19T03:54:59;51864.47;;;-145.06;71.00
6530;BME280;3298;42.688;23.366;2023-09-19T03:57:26;51868.56;;;-145.06;72.81
6530;BME280;3298;42.688;23.366;2023-09-19T03:59:53;51876.75;;;-145.06;73.04
6530;BME280;3298;42.688;23.366;2023-09-19T04:02:22;51872.66;;;-145.06;72.92
6530;BME280;3298;42.688;23.366;2023-09-19T04:04:50;51886.97;;;-145.06;72.63
6530;BME280;3298;42.688;23.366;2023-09-19T04:07:16;51882.88;;;-145.06;71.63
6530;BME280;3298;42.688;23.366;2023-09-19T04:09:44;51909.47;;;-145.06;69.61
6530;BME280;3298;42.688;23.366;2023-09-19T04:12:11;51901.28;;;-145.06;68.87
6530;BME280;3298;42.688;23.366;2023-09-19T04:14:38;51915.63;;;-145.06;68.72
6530;BME280;3298;42.688;23.366;2023-09-19T04:17:05;51893.09;;;-145.06;69.38
6530;BME280;3298;42.688;23.366;2023-09-19T04:19:33;51891.06;;;-145.06;70.04
6530;BME280;3298;42.688;23.366;2023-09-19T04:22:00;51917.66;;;-145.06;70.56
6530;BME280;3298;42.688;23.366;2023-09-19T04:24:28;51901.28;;;-145.06;70.55
6530;BME280;3298;42.688;23.366;2023-09-19T04:26:54;51897.19;;;-145.06;71.27
6530;BME280;3298;42.688;23.366;2023-09-19T04:29:22;51901.28;;;-145.06;70.31
6530;BME280;3298;42.688;23.366;2023-09-19T04:31:50;51893.09;;;-145.06;68.39
6530;BME280;3298;42.688;23.366;2023-09-19T04:34:17;51901.28;;;-145.06;68.18
6530;BME280;3298;42.688;23.366;2023-09-19T04:36:45;51886.97;;;-145.06;68.15
6530;BME280;3298;42.688;23.366;2023-09-19T04:39:12;51938.13;;;-145.06;67.92
6530;BME280;3298;42.688;23.366;2023-09-19T04:41:39;51895.16;;;-145.06;67.92
6530;BME280;3298;42.688;23.366;2023-09-19T04:44:07;51901.28;;;-145.06;68.30
6530;BME280;3298;42.688;23.366;2023-09-19T04:46:33;51913.56;;;-145.06;67.84
6530;BME280;3298;42.688;23.366;2023-09-19T04:49:00;51876.75;;;-145.06;67.92
6530;BME280;3298;42.688;23.366;2023-09-19T04:51:28;51889.00;;;-145.06;68.62
6530;BME280;3298;42.688;23.366;2023-09-19T04:54:01;51880.81;;;-145.06;69.82
6530;BME280;3298;42.688;23.366;2023-09-19T04:56:28;51891.06;;;-145.06;70.68
6530;BME280;3298;42.688;23.366;2023-09-19T04:58:55;51895.16;;;-145.06;70.43
6530;BME280;3298;42.688;23.366;2023-09-19T05:01:23;51905.38;;;-145.06;71.42
6530;BME280;3298;42.688;23.366;2023-09-19T05:03:50;51899.25;;;-145.06;72.02
6530;BME280;3298;42.688;23.366;2023-09-19T05:06:18;51884.91;;;-145.06;72.75
6530;BME280;3298;42.688;23.366;2023-09-19T05:08:46;51872.66;;;-145.06;72.24
6530;BME280;3298;42.688;23.366;2023-09-19T05:11:18;51884.91;;;-145.06;72.00
6530;BME280;3298;42.688;23.366;2023-09-19T05:13:47;51866.50;;;-145.06;70.56
6530;BME280;3298;42.688;23.366;2023-09-19T05:16:15;51884.91;;;-145.06;70.17
6530;BME280;3298;42.688;23.366;2023-09-19T05:18:42;51905.38;;;-145.06;68.91
6530;BME280;3298;42.688;23.366;2023-09-19T05:21:09;51897.19;;;-145.06;68.05
6530;BME280;3298;42.688;23.366;2023-09-19T05:23:36;51874.69;;;-145.06;68.37
6530;BME280;3298;42.688;23.366;2023-09-19T05:26:03;51886.97;;;-145.06;67.84
6530;BME280;3298;42.688;23.366;2023-09-19T05:28:32;51903.34;;;-145.06;68.12
6530;BME280;3298;42.688;23.366;2023-09-19T05:31:00;51876.75;;;-145.06;66.79
6530;BME280;3298;42.688;23.366;2023-09-19T05:33:27;51895.16;;;-145.06;66.65
6530;BME280;3298;42.688;23.366;2023-09-19T05:35:57;51950.41;;;-145.06;66.69
6530;BME280;3298;42.688;23.366;2023-09-19T05:38:23;51884.91;;;-145.06;66.82
6530;BME280;3298;42.688;23.366;2023-09-19T05:40:51;51893.09;;;-145.06;65.90
6530;BME280;3298;42.688;23.366;2023-09-19T05:43:19;51921.75;;;-145.06;66.16
6530;BME280;3298;42.688;23.366;2023-09-19T05:45:47;51889.00;;;-145.06;65.83
6530;BME280;3298;42.688;23.366;2023-09-19T05:48:15;51856.28;;;-145.06;66.92
6530;BME280;3298;42.688;23.366;2023-09-19T05:50:42;51880.81;;;-145.06;66.95
6530;BME280;3298;42.688;23.366;2023-09-19T05:53:12;51901.28;;;-145.06;67.47
6530;BME280;3298;42.688;23.366;2023-09-19T05:55:40;51893.09;;;-145.06;68.06
6530;BME280;3298;42.688;23.366;2023-09-19T05:58:07;51903.34;;;-145.06;67.02
6530;BME280;3298;42.688;23.366;2023-09-19T06:00:35;51880.81;;;-145.06;66.76
6530;BME280;3298;42.688;23.366;2023-09-19T06:03:04;51880.81;;;-145.06;65.60
6530;BME280;3298;42.688;23.366;2023-09-19T06:05:30;51893.09;;;-145.06;65.81
6530;BME280;3298;42.688;23.366;2023-09-19T06:07:57;51897.19;;;-145.06;66.75
6530;BME280;3298;42.688;23.366;2023-09-19T06:10:26;51899.25;;;-145.06;65.42
6530;BME280;3298;42.688;23.366;2023-09-19T06:12:53;51917.66;;;-145.06;64.41
6530;BME280;3298;42.688;23.366;2023-09-19T06:15:23;51880.81;;;-145.06;64.97
6530;BME280;3298;42.688;23.366;2023-09-19T06:17:52;51905.38;;;-145.06;65.67
6530;BME280;3298;42.688;23.366;2023-09-19T06:20:22;51897.19;;;-145.06;65.36
6530;BME280;3298;42.688;23.366;2023-09-19T06:22:49;51901.28;;;-145.06;63.64
6530;BME280;3298;42.688;23.366;2023-09-19T06:25:17;51901.28;;;-145.06;63.38
6530;BME280;3298;42.688;23.366;2023-09-19T06:27:44;51934.03;;;-145.06;62.78
6530;BME280;3298;42.688;23.366;2023-09-19T06:30:11;51917.66;;;-145.06;61.94
6530;BME280;3298;42.688;23.366;2023-09-19T06:32:39;51893.09;;;-145.06;63.53
6530;BME280;3298;42.688;23.366;2023-09-19T06:35:09;51897.19;;;-145.06;63.36
6530;BME280;3298;42.688;23.366;2023-09-19T06:37:38;51923.81;;;-145.06;63.74
6530;BME280;3298;42.688;23.366;2023-09-19T06:40:07;51903.34;;;-145.06;62.33
6530;BME280;3298;42.688;23.366;2023-09-19T06:42:39;51886.97;;;-145.06;61.65
6530;BME280;3298;42.688;23.366;2023-09-19T06:45:07;51909.47;;;-145.06;60.82
6530;BME280;3298;42.688;23.366;2023-09-19T06:47:34;51919.72;;;-145.06;60.47
6530;BME280;3298;42.688;23.366;2023-09-19T06:50:02;51913.56;;;-145.06;61.47
6530;BME280;3298;42.688;23.366;2023-09-19T06:52:30;51889.00;;;-145.06;61.19
6530;BME280;3298;42.688;23.366;2023-09-19T06:54:59;51948.38;;;-145.06;59.67
6530;BME280;3298;42.688;23.366;2023-09-19T06:57:25;51913.56;;;-145.06;59.25
6530;BME280;3298;42.688;23.366;2023-09-19T06:59:52;51921.75;;;-145.06;58.71
6530;BME280;3298;42.688;23.366;2023-09-19T07:02:19;51925.84;;;-145.06;58.47
6530;BME280;3298;42.688;23.366;2023-09-19T07:04:47;51921.75;;;-145.06;57.97
6530;BME280;3298;42.688;23.366;2023-09-19T07:07:14;51913.56;;;-145.06;58.67
6530;BME280;3298;42.688;23.366;2023-09-19T07:09:41;51903.34;;;-145.06;59.79
6530;BME280;3298;42.688;23.366;2023-09-19T07:12:10;51913.56;;;-145.06;59.10
6530;BME280;3298;42.688;23.366;2023-09-19T07:14:37;51903.34;;;-145.06;59.01
6530;BME280;3298;42.688;23.366;2023-09-19T07:17:04;51897.19;;;-145.06;58.23
6530;BME280;3298;42.688;23.366;2023-09-19T07:19:30;51934.03;;;-145.06;58.27
6530;BME280;3298;42.688;23.366;2023-09-19T07:21:57;51917.66;;;-145.06;57.03
6530;BME280;3298;42.688;23.366;2023-09-19T07:24:24;51946.31;;;-145.06;57.97
6530;BME280;3298;42.688;23.366;2023-09-19T07:26:52;51905.38;;;-145.06;57.38
6530;BME280;3298;42.688;23.366;2023-09-19T07:29:21;51921.75;;;-145.06;56.57
6530;BME280;3298;42.688;23.366;2023-09-19T07:31:47;51938.13;;;-145.06;56.75
6530;BME280;3298;42.688;23.366;2023-09-19T07:34:15;51919.72;;;-145.06;56.00
6530;BME280;3298;42.688;23.366;2023-09-19T07:36:42;51925.84;;;-145.06;55.77
6530;BME280;3298;42.688;23.366;2023-09-19T07:39:09;51915.63;;;-145.06;55.54
6530;BME280;3298;42.688;23.366;2023-09-19T07:41:36;51909.47;;;-145.06;56.33
6530;BME280;3298;42.688;23.366;2023-09-19T07:44:03;51925.84;;;-145.06;56.17
6530;BME280;3298;42.688;23.366;2023-09-19T07:46:31;51929.94;;;-145.06;55.30
6530;BME280;3298;42.688;23.366;2023-09-19T07:48:58;51929.94;;;-145.06;54.55
6530;BME280;3298;42.688;23.366;2023-09-19T07:51:25;51946.31;;;-145.06;53.96
6530;BME280;3298;42.688;23.366;2023-09-19T07:53:52;51932.00;;;-145.06;54.33
6530;BME280;3298;42.688;23.366;2023-09-19T07:56:20;51911.53;;;-145.06;53.81
6530;BME280;3298;42.688;23.366;2023-09-19T07:58:48;51925.84;;;-145.06;54.31
6530;BME280;3298;42.688;23.366;2023-09-19T08:01:14;51929.94;;;-145.06;54.25
6530;BME280;3298;42.688;23.366;2023-09-19T08:03:43;51917.66;;;-145.06;54.18
6530;BME280;3298;42.688;23.366;2023-09-19T08:06:10;51921.75;;;-145.06;53.99
6530;BME280;3298;42.688;23.366;2023-09-19T08:08:39;51925.84;;;-145.06;53.59
6530;BME280;3298;42.688;23.366;2023-09-19T08:11:06;51946.31;;;-145.06;53.61
6530;BME280;3298;42.688;23.366;2023-09-19T08:13:37;51927.91;;;-145.06;53.94
6530;BME280;3298;42.688;23.366;2023-09-19T08:16:06;51938.13;;;-145.06;53.37
6530;BME280;3298;42.688;23.366;2023-09-19T08:18:33;51915.63;;;-145.06;53.19
6530;BME280;3298;42.688;23.366;2023-09-19T08:21:01;51917.66;;;-145.06;54.57
6530;BME280;3298;42.688;23.366;2023-09-19T08:23:28;51954.50;;;-145.06;54.31
6530;BME280;3298;42.688;23.366;2023-09-19T08:25:57;51936.09;;;-145.06;53.94
6530;BME280;3298;42.688;23.366;2023-09-19T08:28:27;51893.09;;;-145.06;53.99
6530;BME280;3298;42.688;23.366;2023-09-19T08:30:55;51911.53;;;-145.06;54.01
6530;BME280;3298;42.688;23.366;2023-09-19T08:33:23;51905.38;;;-145.06;54.65
6530;BME280;3298;42.688;23.366;2023-09-19T08:35:50;51925.84;;;-145.06;54.97
6530;BME280;3298;42.688;23.366;2023-09-19T08:38:18;51948.38;;;-145.06;54.22
6530;BME280;3298;42.688;23.366;2023-09-19T08:40:45;51929.94;;;-145.06;53.79
6530;BME280;3298;42.688;23.366;2023-09-19T08:43:12;51946.31;;;-145.06;53.72
6530;BME280;3298;42.688;23.366;2023-09-19T08:45:39;51936.09;;;-145.06;53.69
6530;BME280;3298;42.688;23.366;2023-09-19T08:48:20;51942.22;;;-145.06;53.21
6530;BME280;3298;42.688;23.366;2023-09-19T08:50:51;51946.31;;;-145.06;53.11
6530;BME280;3298;42.688;23.366;2023-09-19T08:53:26;51948.38;;;-145.06;53.07
6530;BME280;3298;42.688;23.366;2023-09-19T08:55:55;51942.22;;;-145.06;52.62
6530;BME280;3298;42.688;23.366;2023-09-19T08:58:26;51929.94;;;-145.06;53.35
6530;BME280;3298;42.688;23.366;2023-09-19T09:00:55;51948.38;;;-145.06;52.92
6530;BME280;3298;42.688;23.366;2023-09-19T09:03:22;51927.91;;;-145.06;53.66
6530;BME280;3298;42.688;23.366;2023-09-19T09:05:50;51932.00;;;-145.06;53.13
6530;BME280;3298;42.688;23.366;2023-09-19T09:08:19;51952.47;;;-145.06;52.43
6530;BME280;3298;42.688;23.366;2023-09-19T09:10:49;51938.13;;;-145.06;52.71
6530;BME280;3298;42.688;23.366;2023-09-19T09:13:16;51925.84;;;-145.06;53.21
6530;BME280;3298;42.688;23.366;2023-09-19T09:15:44;51958.59;;;-145.06;53.73
6530;BME280;3298;42.688;23.366;2023-09-19T09:18:11;51913.56;;;-145.06;53.20
6530;BME280;3298;42.688;23.366;2023-09-19T09:20:38;51923.81;;;-145.06;52.31
6530;BME280;3298;42.688;23.366;2023-09-19T09:23:05;51934.03;;;-145.06;52.66
6530;BME280;3298;42.688;23.366;2023-09-19T09:25:50;51946.31;;;-145.06;52.41
6530;BME280;3298;42.688;23.366;2023-09-19T09:28:21;51954.50;;;-145.06;52.02
6530;BME280;3298;42.688;23.366;2023-09-19T09:30:48;51946.31;;;-145.06;51.78
6530;BME280;3298;42.688;23.366;2023-09-19T09:33:16;51954.50;;;-145.06;51.17
6530;BME280;3298;42.688;23.366;2023-09-19T09:35:52;51968.84;;;-145.06;50.79
6530;BME280;3298;42.688;23.366;2023-09-19T09:38:20;51954.50;;;-145.06;50.88
6530;BME280;3298;42.688;23.366;2023-09-19T09:40:53;51934.03;;;-145.06;50.77
6530;BME280;3298;42.688;23.366;2023-09-19T09:43:29;51940.19;;;-145.06;50.63
6530;BME280;3298;42.688;23.366;2023-09-19T09:46:08;51962.69;;;-145.06;50.31
6530;BME280;3298;42.688;23.366;2023-09-19T09:48:57;51954.50;;;-145.06;49.79
6530;BME280;3298;42.688;23.366;2023-09-19T09:51:41;51942.22;;;-145.06;50.08
6530;BME280;3298;42.688;23.366;2023-09-19T09:54:10;51946.31;;;-145.06;49.75
6530;BME280;3298;42.688;23.366;2023-09-19T09:56:52;51938.13;;;-145.06;50.18
6530;BME280;3298;42.688;23.366;2023-09-19T09:59:20;51927.91;;;-145.06;50.27
6530;BME280;3298;42.688;23.366;2023-09-19T10:01:49;51956.56;;;-145.06;50.34
6530;BME280;3298;42.688;23.366;2023-09-19T10:04:27;51968.84;;;-145.06;49.48
6530;BME280;3298;42.688;23.366;2023-09-19T10:06:57;51946.31;;;-145.06;49.25
6530;BME280;3298;42.688;23.366;2023-09-19T10:09:30;51950.41;;;-145.06;49.46
6530;BME280;3298;42.688;23.366;2023-09-19T10:12:06;51942.22;;;-145.06;49.11
6530;BME280;3298;42.688;23.366;2023-09-19T10:14:37;51977.03;;;-145.06;48.56
6530;BME280;3298;42.688;23.366;2023-09-19T10:17:05;51968.84;;;-145.06;48.76
6530;BME280;3298;42.688;23.366;2023-09-19T10:19:37;51958.59;;;-145.06;48.79
6530;BME280;3298;42.688;23.366;2023-09-19T10:22:05;51954.50;;;-145.06;49.18
6530;BME280;3298;42.688;23.366;2023-09-19T10:24:35;51966.78;;;-145.06;48.85
6530;BME280;3298;42.688;23.366;2023-09-19T10:27:06;52048.66;;;-145.06;48.51
6530;BME280;3298;42.688;23.366;2023-09-19T10:29:36;51966.78;;;-145.06;48.70
6530;BME280;3298;42.688;23.366;2023-09-19T10:32:06;51954.50;;;-145.06;48.56
6530;BME280;3298;42.688;23.366;2023-09-19T10:34:35;51970.88;;;-145.06;48.58
6530;BME280;3298;42.688;23.366;2023-09-19T10:37:02;51954.50;;;-145.06;48.59
6530;BME280;3298;42.688;23.366;2023-09-19T10:39:32;51970.88;;;-145.06;48.31
6530;BME280;3298;42.688;23.366;2023-09-19T10:42:02;51974.97;;;-145.06;47.83
6530;BME280;3298;42.688;23.366;2023-09-19T10:44:33;51966.78;;;-145.06;48.23
6530;BME280;3298;42.688;23.366;2023-09-19T10:46:59;51981.13;;;-145.06;48.26
6530;BME280;3298;42.688;23.366;2023-09-19T10:49:26;51970.88;;;-145.06;47.88
6530;BME280;3298;42.688;23.366;2023-09-19T10:51:56;51968.84;;;-145.06;47.93
6530;BME280;3298;42.688;23.366;2023-09-19T10:54:28;51952.47;;;-145.06;48.15
6530;BME280;3298;42.688;23.366;2023-09-19T10:56:58;52005.69;;;-145.06;48.07
6530;BME280;3298;42.688;23.366;2023-09-19T10:59:26;51952.47;;;-145.06;48.27
6530;BME280;3298;42.688;23.366;2023-09-19T11:02:16;51974.97;;;-145.06;48.32
6530;BME280;3298;42.688;23.366;2023-09-19T11:04:43;51974.97;;;-145.06;48.25
6530;BME280;3298;42.688;23.366;2023-09-19T11:07:14;51987.25;;;-145.06;48.19
6530;BME280;3298;42.688;23.366;2023-09-19T11:09:48;51970.88;;;-145.06;48.35
6530;BME280;3298;42.688;23.366;2023-09-19T11:12:49;51968.84;;;-145.06;47.94
6530;BME280;3298;42.688;23.366;2023-09-19T11:18:57;51981.13;;;-145.06;47.62
6530;BME280;3298;42.688;23.366;2023-09-19T11:21:51;51977.03;;;-145.06;47.60
6530;BME280;3298;42.688;23.366;2023-09-19T11:24:30;51981.13;;;-145.06;47.33
6530;BME280;3298;42.688;23.366;2023-09-19T11:27:12;51995.44;;;-145.06;47.55
6530;BME280;3298;42.688;23.366;2023-09-19T11:29:40;52011.81;;;-145.06;47.88
6530;BME280;3298;42.688;23.366;2023-09-19T11:32:07;51979.06;;;-145.06;47.59
6530;BME280;3298;42.688;23.366;2023-09-19T11:34:46;51987.25;;;-145.06;47.44
6530;BME280;3298;42.688;23.366;2023-09-19T11:40:45;51979.06;;;-145.06;47.57
6530;BME280;3298;42.688;23.366;2023-09-19T11:43:32;51993.41;;;-145.06;47.41
6530;BME280;3298;42.688;23.366;2023-09-19T11:46:08;51979.06;;;-145.06;46.87
6530;BME280;3298;42.688;23.366;2023-09-19T11:48:38;51979.06;;;-145.06;46.41
6530;BME280;3298;42.688;23.366;2023-09-19T11:51:15;51985.22;;;-145.06;46.29
6530;BME280;3298;42.688;23.366;2023-09-19T11:53:48;52007.72;;;-145.06;46.51
6530;BME280;3298;42.688;23.366;2023-09-19T11:56:16;51995.44;;;-145.06;46.47
6530;BME280;3298;42.688;23.366;2023-09-19T11:58:44;52007.72;;;-145.06;46.16
6530;BME280;3298;42.688;23.366;2023-09-19T12:01:13;51983.16;;;-145.06;46.55
6530;BME280;3298;42.688;23.366;2023-09-19T12:03:46;52001.59;;;-145.06;46.23
6530;BME280;3298;42.688;23.366;2023-09-19T12:06:16;52013.88;;;-145.06;45.68
6530;BME280;3298;42.688;23.366;2023-09-19T12:08:43;52005.69;;;-145.06;45.85
6530;BME280;3298;42.688;23.366;2023-09-19T12:11:13;52005.69;;;-145.06;45.14
6530;BME280;3298;42.688;23.366;2023-09-19T12:13:42;52001.59;;;-145.06;45.06
6530;BME280;3298;42.688;23.366;2023-09-19T12:16:15;52007.72;;;-145.06;44.93
6530;BME280;3298;42.688;23.366;2023-09-19T12:18:44;51993.41;;;-145.06;45.14
6530;BME280;3298;42.688;23.366;2023-09-19T12:21:27;52005.69;;;-145.06;44.67
6530;BME280;3298;42.688;23.366;2023-09-19T12:24:06;52013.88;;;-145.06;44.51
6530;BME280;3298;42.688;23.366;2023-09-19T12:26:42;51981.13;;;-145.06;44.57
6530;BME280;3298;42.688;23.366;2023-09-19T12:29:15;52003.63;;;-145.06;44.37
6530;BME280;3298;42.688;23.366;2023-09-19T12:31:52;52020.00;;;-145.06;44.22
6530;BME280;3298;42.688;23.366;2023-09-19T12:34:24;52007.72;;;-145.06;44.12
6530;BME280;3298;42.688;23.366;2023-09-19T12:37:08;51999.53;;;-145.06;43.72
6530;BME280;3298;42.688;23.366;2023-09-19T12:39:42;52032.28;;;-145.06;43.86
6530;BME280;3298;42.688;23.366;2023-09-19T12:42:14;52013.88;;;-145.06;43.80
6530;BME280;3298;42.688;23.366;2023-09-19T12:44:42;52065.03;;;-145.06;43.58
6530;BME280;3298;42.688;23.366;2023-09-19T12:47:15;52003.63;;;-145.06;43.43
6530;BME280;3298;42.688;23.366;2023-09-19T12:50:11;52038.44;;;-145.06;43.58
6530;BME280;3298;42.688;23.366;2023-09-19T12:52:45;52001.59;;;-145.06;43.63
6530;BME280;3298;42.688;23.366;2023-09-19T12:55:21;51995.44;;;-145.06;43.65
6530;BME280;3298;42.688;23.366;2023-09-19T12:58:08;52028.19;;;-145.06;43.39
6530;BME280;3298;42.688;23.366;2023-09-19T13:00:37;52011.81;;;-145.06;43.46
6530;BME280;3298;42.688;23.366;2023-09-19T13:03:25;52017.97;;;-145.06;43.49
6530;BME280;3298;42.688;23.366;2023-09-19T13:05:55;52038.44;;;-145.06;43.21
6530;BME280;3298;42.688;23.366;2023-09-19T13:08:29;52020.00;;;-145.06;43.28
6530;BME280;3298;42.688;23.366;2023-09-19T13:11:05;52032.28;;;-145.06;43.41
6530;BME280;3298;42.688;23.366;2023-09-19T13:13:36;52110.06;;;-145.06;43.37